createdAt,value
2022-11-29T00:00:57.803Z,4.97
2022-11-29T00:03:41.316Z,5.13
2022-11-29T00:06:10.612Z,4.53
2022-11-29T00:08:46.270Z,6.03
2022-11-29T00:15:28.567Z,5.22
2022-11-29T00:18:30.419Z,4.93
2022-11-29T00:21:51.550Z,5.60
2022-11-29T00:24:18.040Z,5.38
2022-11-29T00:26:44.596Z,5.78
2022-11-29T00:29:12.188Z,7.00
2022-11-29T00:31:42.290Z,6.43
2022-11-29T00:34:10.731Z,6.75
2022-11-29T00:41:42.402Z,5.68
2022-11-29T00:44:19.845Z,6.63
2022-11-29T00:46:56.456Z,5.63
2022-11-29T00:50:19.803Z,6.80
2022-11-29T00:52:46.355Z,7.28
2022-11-29T00:55:35.091Z,6.88
2022-11-29T00:58:42.693Z,6.55
2022-11-29T01:01:12.303Z,6.47
2022-11-29T01:07:19.849Z,6.15
2022-11-29T01:13:58.875Z,8.05
2022-11-29T01:16:50.550Z,6.55
2022-11-29T01:22:59.230Z,6.70
2022-11-29T01:25:25.802Z,6.30
2022-11-29T01:28:18.319Z,6.85
2022-11-29T01:30:53.327Z,6.45
2022-11-29T01:33:26.024Z,6.18
2022-11-29T01:35:54.118Z,5.55
2022-11-29T01:38:24.027Z,6.28
2022-11-29T01:47:38.908Z,5.07
2022-11-29T01:50:08.839Z,6.00
2022-11-29T01:56:55.821Z,6.00
2022-11-29T01:59:26.059Z,5.97
2022-11-29T02:02:15.062Z,6.97
2022-11-29T02:04:48.544Z,6.13
2022-11-29T02:07:15.513Z,5.78
2022-11-29T02:13:35.526Z,6.18
2022-11-29T02:16:13.521Z,5.53
2022-11-29T02:18:42.926Z,5.75
2022-11-29T02:21:24.310Z,6.60
2022-11-29T02:24:11.369Z,6.47
2022-11-29T02:26:59.751Z,5.75
2022-11-29T02:29:59.324Z,5.72
2022-11-29T02:33:21.067Z,5.35
2022-11-29T02:36:28.479Z,5.90
2022-11-29T02:43:37.595Z,5.95
2022-11-29T02:46:14.447Z,5.13
2022-11-29T02:48:51.869Z,5.38
2022-11-29T02:51:52.932Z,5.63
2022-11-29T02:54:38.958Z,5.97
2022-11-29T02:57:29.760Z,5.90
2022-11-29T03:00:10.932Z,6.05
2022-11-29T03:06:24.430Z,6.22
2022-11-29T03:09:35.363Z,6.22
2022-11-29T03:12:16.451Z,6.13
2022-11-29T03:15:10.830Z,5.85
2022-11-29T03:18:02.270Z,6.65
2022-11-29T03:21:09.291Z,6.05
2022-11-29T03:24:04.648Z,5.97
2022-11-29T03:30:22.375Z,6.25
2022-11-29T03:33:01.905Z,5.57
2022-11-29T03:35:48.210Z,4.88
2022-11-29T03:38:53.064Z,5.45
2022-11-29T03:42:08.712Z,4.95
2022-11-29T03:47:49.103Z,6.60
2022-11-29T04:06:30.080Z,7.00
2022-11-29T04:11:44.119Z,6.15
2022-11-29T04:15:03.956Z,4.97
2022-11-29T04:17:49.704Z,5.40
2022-11-29T04:31:50.959Z,5.80
2022-11-29T04:45:54.165Z,4.93
2022-11-29T04:57:10.469Z,5.53
2022-11-29T05:28:27.958Z,4.28
2022-11-29T05:31:00.356Z,4.22
2022-11-29T05:54:26.031Z,3.25
2022-11-29T05:57:28.178Z,3.88
2022-11-29T05:59:56.750Z,4.13
2022-11-29T06:02:26.401Z,3.92
2022-11-29T06:05:07.711Z,4.28
2022-11-29T06:07:50.154Z,4.07
2022-11-29T06:10:21.788Z,4.00
2022-11-29T06:12:59.700Z,3.92
2022-11-29T06:15:58.630Z,4.10
2022-11-29T06:18:51.700Z,3.97
2022-11-29T06:21:29.194Z,3.60
2022-11-29T06:23:58.686Z,4.00
2022-11-29T06:26:37.304Z,4.10
2022-11-29T06:29:22.448Z,4.55
2022-11-29T06:31:59.967Z,4.55
2022-11-29T06:34:33.632Z,4.47
2022-11-29T06:37:27.647Z,4.30
2022-11-29T06:39:55.028Z,4.75
2022-11-29T06:42:21.528Z,3.90
2022-11-29T06:44:48.263Z,4.80
2022-11-29T06:47:26.877Z,4.57
2022-11-29T06:50:03.964Z,4.32
2022-11-29T06:53:04.267Z,4.78
2022-11-29T06:55:43.818Z,5.05
2022-11-29T06:58:32.852Z,4.68
2022-11-29T07:01:37.503Z,4.53
2022-11-29T07:04:18.004Z,5.20
2022-11-29T07:06:47.484Z,5.38
2022-11-29T07:09:17.119Z,7.85
2022-11-29T07:11:44.617Z,7.50
2022-11-29T07:14:11.801Z,6.03
2022-11-29T07:16:57.579Z,5.22
2022-11-29T07:19:30.732Z,4.57
2022-11-29T07:21:57.174Z,4.47
2022-11-29T07:24:56.109Z,4.30
2022-11-29T07:27:25.628Z,4.53
2022-11-29T07:30:10.890Z,4.18
2022-11-29T07:33:00.657Z,3.90
2022-11-29T07:36:09.197Z,3.30
2022-11-29T07:38:50.805Z,3.63
2022-11-29T07:41:26.455Z,3.88
2022-11-29T07:44:02.100Z,3.50
2022-11-29T07:46:28.659Z,3.63
2022-11-29T07:48:55.316Z,3.58
2022-11-29T07:51:21.981Z,3.75
2022-11-29T07:53:48.568Z,2.72
2022-11-29T07:56:15.123Z,3.45
2022-11-29T07:58:41.975Z,3.30
2022-11-29T08:01:08.808Z,2.95
2022-11-29T08:03:35.344Z,3.38
2022-11-29T08:06:02.598Z,3.47
2022-11-29T08:08:29.174Z,3.70
2022-11-29T08:10:55.812Z,4.38
2022-11-29T08:13:24.862Z,4.15
2022-11-29T08:15:51.424Z,3.90
2022-11-29T08:18:18.008Z,3.55
2022-11-29T08:20:45.037Z,3.75
2022-11-29T08:23:12.991Z,3.50
2022-11-29T08:25:39.663Z,2.63
2022-11-29T08:28:06.583Z,2.90
2022-11-29T08:30:33.303Z,2.85
2022-11-29T08:32:59.823Z,2.63
2022-11-29T08:35:26.428Z,2.95
2022-11-29T08:37:54.439Z,2.65
2022-11-29T08:40:21.183Z,3.00
2022-11-29T08:42:47.703Z,2.90
2022-11-29T08:45:14.209Z,3.40
2022-11-29T08:47:40.850Z,3.40
2022-11-29T08:50:09.505Z,3.38
2022-11-29T08:52:38.632Z,3.20
2022-11-29T08:55:05.438Z,3.17
2022-11-29T08:57:39.939Z,2.92
2022-11-29T09:00:09.411Z,3.38
2022-11-29T09:02:36.725Z,3.03
2022-11-29T09:05:04.487Z,2.90
2022-11-29T09:07:31.275Z,3.08
2022-11-29T09:09:57.780Z,2.85
2022-11-29T09:12:26.840Z,2.78
2022-11-29T09:14:53.516Z,3.00
2022-11-29T09:17:20.119Z,2.95
2022-11-29T09:19:46.612Z,2.88
2022-11-29T09:22:13.183Z,3.10
2022-11-29T09:24:42.894Z,2.95
2022-11-29T09:27:09.567Z,3.13
2022-11-29T09:29:36.111Z,2.60
2022-11-29T09:32:02.650Z,3.33
2022-11-29T09:34:29.164Z,3.28
2022-11-29T09:36:55.679Z,2.70
2022-11-29T09:39:22.325Z,2.80
2022-11-29T09:42:00.718Z,3.40
2022-11-29T09:45:05.609Z,3.22
2022-11-29T09:47:50.806Z,1.63
2022-11-29T09:50:37.863Z,1.80
2022-11-29T09:53:22.668Z,2.00
2022-11-29T09:56:17.544Z,1.77
2022-11-29T09:58:57.715Z,1.67
2022-11-29T10:01:28.327Z,1.17
2022-11-29T10:04:03.047Z,1.45
2022-11-29T10:06:33.948Z,1.40
2022-11-29T10:09:13.828Z,1.40
2022-11-29T10:29:41.052Z,1.25
2022-11-29T10:32:13.526Z,1.25
2022-11-29T10:34:40.396Z,1.25
2022-11-29T10:37:13.194Z,1.00
2022-11-29T10:39:55.911Z,1.13
2022-11-29T10:42:23.864Z,1.10
2022-11-29T10:44:53.371Z,1.40
2022-11-29T10:47:20.003Z,1.08
2022-11-29T10:49:46.519Z,1.45
2022-11-29T10:52:23.095Z,1.45
2022-11-29T10:54:53.934Z,1.25
2022-11-29T10:57:22.175Z,1.38
2022-11-29T11:00:00.091Z,0.90
2022-11-29T11:02:28.082Z,0.93
2022-11-29T11:04:54.697Z,1.20
2022-11-29T11:07:29.336Z,1.30
2022-11-29T11:09:57.259Z,0.90
2022-11-29T11:12:30.366Z,1.10
2022-11-29T11:15:26.212Z,1.00
2022-11-29T11:18:01.985Z,1.00
2022-11-29T11:20:30.079Z,1.00
2022-11-29T11:22:59.259Z,1.20
2022-11-29T11:25:31.480Z,0.90
2022-11-29T11:28:13.698Z,1.20
2022-11-29T11:30:40.633Z,1.88
2022-11-29T11:33:30.839Z,1.30
2022-11-29T11:36:03.945Z,1.15
2022-11-29T11:38:30.717Z,0.90
2022-11-29T11:41:05.665Z,0.90
2022-11-29T11:43:32.804Z,0.95
2022-11-29T11:45:59.370Z,0.90
2022-11-29T11:48:25.950Z,1.23
2022-11-29T11:50:58.023Z,1.15
2022-11-29T11:53:33.403Z,0.90
2022-11-29T11:56:10.759Z,1.10
2022-11-29T11:58:57.100Z,1.05
2022-11-29T12:01:23.482Z,0.95
2022-11-29T12:04:12.720Z,0.80
2022-11-29T12:07:02.269Z,0.77
2022-11-29T12:09:47.923Z,0.75
2022-11-29T12:12:28.944Z,0.85
2022-11-29T12:15:07.549Z,1.00
2022-11-29T12:17:45.728Z,1.45
2022-11-29T12:20:46.876Z,0.85
2022-11-29T12:23:13.282Z,1.15
2022-11-29T12:25:51.009Z,1.00
2022-11-29T12:28:20.854Z,0.90
2022-11-29T12:31:12.537Z,0.73
2022-11-29T12:34:03.507Z,0.80
2022-11-29T12:36:47.540Z,0.85
2022-11-29T12:39:22.672Z,0.90
2022-11-29T12:42:19.711Z,1.00
2022-11-29T12:45:04.351Z,1.25
2022-11-29T12:47:52.466Z,0.80
2022-11-29T12:50:26.074Z,0.63
2022-11-29T12:52:59.267Z,0.90
2022-11-29T12:55:44.559Z,0.90
2022-11-29T12:58:16.583Z,0.90
2022-11-29T13:01:06.343Z,0.90
2022-11-29T13:03:38.952Z,0.90
2022-11-29T13:06:26.387Z,0.98
2022-11-29T13:09:31.920Z,0.70
2022-11-29T13:12:13.477Z,0.80
2022-11-29T13:14:51.760Z,0.85
2022-11-29T13:17:33.380Z,1.00
2022-11-29T13:20:17.973Z,1.25
2022-11-29T13:23:08.063Z,0.98
2022-11-29T13:25:37.924Z,1.30
2022-11-29T13:28:29.505Z,1.00
2022-11-29T13:31:00.682Z,1.13
2022-11-29T13:33:41.415Z,1.20
2022-11-29T13:36:21.369Z,1.30
2022-11-29T13:38:53.947Z,0.88
2022-11-29T13:41:30.912Z,0.93
2022-11-29T13:43:57.407Z,1.08
2022-11-29T13:46:30.635Z,0.90
2022-11-29T13:48:57.330Z,1.08
2022-11-29T13:51:37.556Z,1.23
2022-11-29T13:56:41.020Z,1.20
2022-11-29T13:59:12.431Z,1.30
2022-11-29T14:01:52.293Z,1.40
2022-11-29T14:04:32.702Z,1.25
2022-11-29T14:09:43.694Z,1.40
2022-11-29T14:12:22.279Z,1.45
2022-11-29T14:15:00.815Z,1.10
2022-11-29T14:17:53.515Z,1.40
2022-11-29T14:20:22.918Z,1.10
2022-11-29T14:23:04.659Z,1.75
2022-11-29T14:25:51.208Z,1.40
2022-11-29T14:28:21.478Z,1.48
2022-11-29T14:30:55.844Z,1.48
2022-11-29T14:33:44.149Z,1.55
2022-11-29T14:36:14.769Z,1.30
2022-11-29T14:39:04.606Z,1.60
2022-11-29T14:41:56.346Z,2.10
2022-11-29T14:44:28.426Z,1.40
2022-11-29T14:47:24.162Z,1.40
2022-11-29T14:49:52.015Z,1.45
2022-11-29T14:52:28.386Z,1.63
2022-11-29T14:55:02.763Z,1.73
2022-11-29T14:57:47.646Z,1.38
2022-11-29T15:00:28.314Z,1.50
2022-11-29T15:03:09.028Z,1.50
2022-11-29T15:06:18.023Z,1.50
2022-11-29T15:09:14.177Z,1.70
2022-11-29T15:11:48.477Z,1.60
2022-11-29T15:14:46.084Z,1.50
2022-11-29T15:17:30.701Z,1.58
2022-11-29T15:20:19.601Z,1.45
2022-11-29T15:22:51.221Z,1.88
2022-11-29T15:25:21.818Z,1.60
2022-11-29T15:28:05.472Z,1.60
2022-11-29T15:30:39.628Z,1.50
2022-11-29T15:33:21.107Z,1.77
2022-11-29T15:35:52.758Z,1.70
2022-11-29T15:38:20.644Z,1.40
2022-11-29T15:40:54.415Z,1.85
2022-11-29T15:43:28.259Z,1.80
2022-11-29T15:45:56.671Z,1.80
2022-11-29T15:48:31.379Z,1.23
2022-11-29T15:51:04.825Z,1.52
2022-11-29T15:53:36.760Z,1.58
2022-11-29T15:56:09.230Z,1.88
2022-11-29T15:58:36.670Z,1.92
2022-11-29T16:01:03.602Z,1.80
2022-11-29T16:03:34.779Z,1.75
2022-11-29T16:06:28.083Z,2.35
2022-11-29T16:08:54.649Z,1.88
2022-11-29T16:11:23.215Z,2.10
2022-11-29T16:14:21.358Z,2.42
2022-11-29T16:16:49.615Z,2.58
2022-11-29T16:19:24.773Z,1.98
2022-11-29T16:22:12.408Z,2.03
2022-11-29T16:24:41.222Z,2.28
2022-11-29T16:27:07.901Z,2.22
2022-11-29T16:29:37.449Z,2.90
2022-11-29T16:32:24.540Z,2.40
2022-11-29T16:34:51.472Z,2.75
2022-11-29T16:37:26.124Z,2.00
2022-11-29T16:39:57.095Z,2.55
2022-11-29T16:42:31.506Z,2.75
2022-11-29T16:45:02.073Z,2.58
2022-11-29T16:47:30.535Z,2.53
2022-11-29T16:50:03.195Z,2.78
2022-11-29T16:52:32.393Z,2.80
2022-11-29T16:54:58.948Z,3.60
2022-11-29T16:57:26.643Z,3.60
2022-11-29T16:59:53.110Z,3.47
2022-11-29T17:02:19.969Z,3.33
2022-11-29T17:04:46.820Z,4.30
2022-11-29T17:07:22.812Z,3.70
2022-11-29T17:09:49.329Z,4.13
2022-11-29T17:12:15.989Z,4.43
2022-11-29T17:14:42.588Z,4.10
2022-11-29T17:17:14.070Z,4.38
2022-11-29T17:19:40.528Z,5.25
2022-11-29T17:22:07.055Z,4.30
2022-11-29T17:24:33.537Z,4.45
2022-11-29T17:27:00.048Z,5.20
2022-11-29T17:29:26.545Z,4.57
2022-11-29T17:31:53.101Z,4.63
2022-11-29T17:34:20.208Z,4.35
2022-11-29T17:36:50.310Z,3.63
2022-11-29T17:39:16.977Z,4.05
2022-11-29T17:41:43.521Z,4.20
2022-11-29T17:44:10.310Z,4.00
2022-11-29T17:46:37.072Z,4.15
2022-11-29T17:49:08.394Z,4.40
2022-11-29T17:51:52.858Z,4.80
2022-11-29T17:54:20.226Z,6.40
2022-11-29T17:56:47.109Z,7.03
2022-11-29T17:59:13.734Z,7.45
2022-11-29T18:01:40.331Z,7.20
2022-11-29T18:04:07.494Z,7.78
2022-11-29T18:06:36.672Z,8.18
2022-11-29T18:09:04.435Z,7.30
2022-11-29T18:11:46.494Z,8.10
2022-11-29T18:14:19.118Z,8.07
2022-11-29T18:16:45.908Z,8.32
2022-11-29T18:19:17.765Z,8.35
2022-11-29T18:21:44.282Z,9.55
2022-11-29T18:24:10.898Z,10.02
2022-11-29T18:26:38.303Z,7.72
2022-11-29T18:29:05.794Z,7.07
2022-11-29T18:31:35.112Z,6.68
2022-11-29T18:34:04.283Z,6.95
2022-11-29T18:36:33.032Z,6.20
2022-11-29T18:39:01.659Z,6.65
2022-11-29T18:41:29.957Z,7.85
2022-11-29T18:44:05.298Z,7.65
2022-11-29T18:46:32.342Z,7.03
2022-11-29T18:49:00.255Z,7.15
2022-11-29T18:51:27.438Z,7.68
2022-11-29T18:53:54.087Z,7.78
2022-11-29T18:56:22.215Z,7.97
2022-11-29T18:59:03.272Z,7.53
2022-11-29T19:01:32.363Z,7.03
2022-11-29T19:04:00.126Z,6.00
2022-11-29T19:06:32.827Z,6.40
2022-11-29T19:09:04.858Z,6.65
2022-11-29T19:11:32.880Z,6.25
2022-11-29T19:14:01.815Z,6.63
2022-11-29T19:16:29.881Z,6.47
2022-11-29T19:18:58.209Z,6.90
2022-11-29T19:21:27.286Z,6.80
2022-11-29T19:23:58.894Z,6.03
2022-11-29T19:26:27.269Z,6.93
2022-11-29T19:28:55.097Z,8.77
2022-11-29T19:31:22.867Z,7.22
2022-11-29T19:33:49.394Z,6.85
2022-11-29T19:36:21.328Z,9.93
2022-11-29T19:38:53.152Z,10.18
2022-11-29T19:41:24.983Z,7.13
2022-11-29T19:43:52.104Z,9.63
2022-11-29T19:46:22.515Z,8.55
2022-11-29T19:51:16.163Z,10.60
2022-11-29T19:53:42.668Z,9.07
2022-11-29T19:56:12.381Z,9.27
2022-11-29T19:58:39.063Z,11.75
2022-11-29T20:01:07.889Z,16.52
2022-11-29T20:03:35.002Z,9.85
2022-11-29T20:08:52.599Z,10.05
2022-11-29T20:11:21.555Z,13.65
2022-11-29T20:13:53.919Z,21.15
2022-11-29T20:16:20.443Z,12.77
2022-11-29T20:18:50.960Z,9.00
2022-11-29T20:21:21.016Z,10.63
2022-11-29T20:23:47.969Z,9.90
2022-11-29T20:26:20.133Z,11.05
2022-11-29T20:28:48.113Z,10.05
2022-11-29T20:31:19.481Z,9.95
2022-11-29T20:33:47.462Z,9.05
2022-11-29T20:36:38.031Z,9.40
2022-11-29T20:39:31.127Z,9.02
2022-11-29T20:42:13.165Z,9.27
2022-11-29T20:44:49.747Z,9.35
2022-11-29T20:47:18.610Z,9.23
2022-11-29T20:49:46.127Z,10.63
2022-11-29T20:52:32.263Z,9.90
2022-11-29T20:57:42.790Z,9.73
2022-11-29T21:00:11.233Z,10.15
2022-11-29T21:02:38.135Z,9.95
2022-11-29T21:05:05.568Z,10.48
2022-11-29T21:07:32.155Z,9.68
2022-11-29T21:10:01.413Z,9.60
2022-11-29T21:12:29.712Z,10.13
2022-11-29T21:14:56.646Z,10.38
2022-11-29T21:17:26.463Z,11.38
2022-11-29T21:19:56.843Z,11.10
2022-11-29T21:22:34.353Z,10.50
2022-11-29T21:25:19.415Z,10.57
2022-11-29T21:27:48.581Z,10.55
2022-11-29T21:30:20.635Z,10.40
2022-11-29T21:32:47.641Z,9.50
2022-11-29T21:35:16.813Z,9.93
2022-11-29T21:37:43.863Z,10.25
2022-11-29T21:40:11.651Z,9.95
2022-11-29T21:42:38.204Z,9.32
2022-11-29T21:45:09.305Z,9.98
2022-11-29T21:47:41.282Z,9.82
2022-11-29T21:50:08.332Z,10.43
2022-11-29T21:52:34.835Z,11.10
2022-11-29T21:55:02.242Z,10.48
2022-11-29T21:57:28.895Z,11.13
2022-11-29T21:59:55.400Z,10.65
2022-11-29T22:02:22.120Z,10.57
2022-11-29T22:04:48.964Z,10.43
2022-11-29T22:07:15.648Z,10.95
2022-11-29T22:09:42.270Z,10.20
2022-11-29T22:12:31.856Z,9.65
2022-11-29T22:14:55.357Z,10.88
2022-11-29T22:17:21.822Z,10.70
2022-11-29T22:19:48.357Z,10.55
2022-11-29T22:22:16.028Z,11.35
2022-11-29T22:24:42.718Z,10.23
2022-11-29T22:27:21.970Z,10.85
2022-11-29T22:29:48.472Z,9.18
2022-11-29T22:32:15.008Z,11.68
2022-11-29T22:34:41.482Z,11.73
2022-11-29T22:37:07.989Z,10.63
2022-11-29T22:39:34.822Z,11.45
2022-11-29T22:42:01.279Z,10.73
2022-11-29T22:44:27.804Z,10.88
2022-11-29T22:46:54.341Z,11.93
2022-11-29T22:49:21.061Z,10.07
2022-11-29T22:51:47.730Z,7.35
2022-11-29T22:54:14.230Z,8.10
2022-11-29T22:56:42.065Z,9.43
2022-11-29T22:59:08.907Z,9.68
2022-11-29T23:01:37.728Z,10.27
2022-11-29T23:04:05.540Z,10.23
2022-11-29T23:06:34.086Z,10.00
2022-11-29T23:09:06.016Z,10.32
2022-11-29T23:11:35.780Z,10.13
2022-11-29T23:14:02.351Z,10.07
2022-11-29T23:16:31.521Z,10.07
2022-11-29T23:18:58.844Z,10.40
2022-11-29T23:21:30.707Z,9.52
2022-11-29T23:23:57.571Z,9.48
2022-11-29T23:26:26.622Z,9.23
2022-11-29T23:28:53.957Z,9.05
2022-11-29T23:31:21.347Z,9.00
2022-11-29T23:33:48.113Z,8.43
2022-11-29T23:36:15.347Z,8.07
2022-11-29T23:38:42.376Z,8.00
2022-11-29T23:41:09.399Z,7.55
2022-11-29T23:43:37.630Z,7.78
2022-11-29T23:46:08.884Z,7.00
2022-11-29T23:48:35.698Z,7.95
2022-11-29T23:51:03.074Z,7.63
2022-11-29T23:53:29.755Z,8.05
2022-11-29T23:56:00.631Z,7.53
2022-11-29T23:58:27.729Z,7.72
